Time;durP1;ratioP1;P1;durP2;ratioP2;P2;SDS_P1;SDS_P2;PMS_P1;PMS_P2;Temp;Humidity;BMP_temperature;BMP_pressure;BME280_temperature;BME280_humidity;BME280_pressure;Samples;Min_cycle;Max_cycle;Signal;HPM_P1;HPM_P2
2022/06/28 00:00:24;;;;;;;7.22;6.53;;;;;;;;;;6201345;28;20320;-72
2022/06/28 00:03:44;;;;;;;7.35;6.75;;;;;;;;;;6195031;28;20233;-71
2022/06/28 00:07:05;;;;;;;7.07;6.57;;;;;;;;;;6197541;28;20307;-71
2022/06/28 00:10:26;;;;;;;6.07;5.53;;;;;;;;;;6197089;28;20654;-72
2022/06/28 00:13:48;;;;;;;6.68;5.88;;;;;;;;;;6201265;28;20256;-72
2022/06/28 00:17:07;;;;;;;7.00;6.40;;;;;;;;;;6200560;28;20221;-71
2022/06/28 00:20:28;;;;;;;6.60;6.00;;;;;;;;;;6193987;28;20233;-72
2022/06/28 00:23:48;;;;;;;6.18;5.68;;;;;;;;;;6198652;28;22822;-72
2022/06/28 00:27:09;;;;;;;5.85;5.45;;;;;;;;;;6196768;28;20650;-72
2022/06/28 00:30:31;;;;;;;6.65;6.15;;;;;;;;;;6201528;28;20750;-71
2022/06/28 00:33:52;;;;;;;8.07;6.55;;;;;;;;;;6209943;28;20237;-71
2022/06/28 00:37:12;;;;;;;7.65;7.05;;;;;;;;;;6210906;28;20233;-71
2022/06/28 00:40:33;;;;;;;6.85;5.35;;;;;;;;;;6196355;28;20233;-70
2022/06/28 00:43:54;;;;;;;7.03;6.43;;;;;;;;;;6203350;28;20228;-71
2022/06/28 00:47:16;;;;;;;6.47;5.85;;;;;;;;;;6194405;28;20598;-70
2022/06/28 00:50:38;;;;;;;7.28;6.65;;;;;;;;;;6200783;28;20233;-70
2022/06/28 00:53:59;;;;;;;6.50;5.90;;;;;;;;;;6211684;28;20568;-71
2022/06/28 00:57:19;;;;;;;6.30;5.80;;;;;;;;;;6196715;28;21120;-71
2022/06/28 01:00:41;;;;;;;6.05;5.65;;;;;;;;;;6201670;28;20229;-71
2022/06/28 01:04:06;;;;;;;5.53;5.03;;;;;;;;;;6171328;28;20229;-72
2022/06/28 01:07:26;;;;;;;6.47;5.88;;;;;;;;;;6197944;28;20260;-71
2022/06/28 01:10:47;;;;;;;5.22;4.80;;;;;;;;;;6198099;28;20225;-72
2022/06/28 01:14:10;;;;;;;5.60;5.10;;;;;;;;;;6214303;28;20253;-72
2022/06/28 01:17:49;;;;;;;7.32;6.63;;;;;;;;;;6195921;28;20237;-72
2022/06/28 01:21:33;;;;;;;6.93;5.47;;;;;;;;;;6198717;28;20237;-71
2022/06/28 01:24:56;;;;;;;5.78;4.95;;;;;;;;;;6185501;28;20229;-70
2022/06/28 01:28:18;;;;;;;5.40;4.95;;;;;;;;;;6199409;28;20233;-71
2022/06/28 01:31:41;;;;;;;5.57;5.00;;;;;;;;;;6198894;28;20221;-70
2022/06/28 01:35:03;;;;;;;5.47;4.97;;;;;;;;;;6198425;28;20643;-71
2022/06/28 01:38:23;;;;;;;9.48;6.10;;;;;;;;;;6213854;28;20709;-71
2022/06/28 01:41:46;;;;;;;5.57;5.07;;;;;;;;;;6198134;28;20229;-71
2022/06/28 01:45:14;;;;;;;7.00;6.30;;;;;;;;;;6198298;28;20628;-71
2022/06/28 01:48:34;;;;;;;7.82;6.88;;;;;;;;;;6205149;28;20402;-70
2022/06/28 01:51:57;;;;;;;10.05;9.10;;;;;;;;;;6202461;28;20225;-71
2022/06/28 01:55:18;;;;;;;12.73;11.63;;;;;;;;;;6215429;28;20241;-69
2022/06/28 01:58:42;;;;;;;12.65;11.20;;;;;;;;;;6192002;28;20256;-70
2022/06/28 02:02:03;;;;;;;15.57;13.95;;;;;;;;;;6205843;28;20237;-69
2022/06/28 02:05:38;;;;;;;16.25;14.73;;;;;;;;;;6212081;28;20249;-71
2022/06/28 02:08:59;;;;;;;15.95;14.75;;;;;;;;;;6201326;28;20237;-72
2022/06/28 02:12:28;;;;;;;15.88;14.27;;;;;;;;;;6198044;28;20221;-71
2022/06/28 02:15:50;;;;;;;15.98;14.68;;;;;;;;;;6215333;28;20233;-69
2022/06/28 02:19:11;;;;;;;16.40;15.00;;;;;;;;;;6211717;28;20225;-71
2022/06/28 02:22:33;;;;;;;16.17;14.68;;;;;;;;;;6195860;28;22276;-71
2022/06/28 02:25:54;;;;;;;17.33;15.93;;;;;;;;;;6198919;28;20237;-72
2022/06/28 02:29:14;;;;;;;15.98;14.55;;;;;;;;;;6215814;28;20221;-71
2022/06/28 02:32:36;;;;;;;14.85;13.50;;;;;;;;;;6186202;28;20602;-71
2022/06/28 02:43:13;;;;;;;13.30;12.30;;;;;;;;;;6194222;28;20598;-71
2022/06/28 02:46:35;;;;;;;13.48;11.93;;;;;;;;;;6199810;28;20788;-71
2022/06/28 02:49:57;;;;;;;13.20;12.13;;;;;;;;;;6203768;28;20232;-72
2022/06/28 02:53:18;;;;;;;13.27;12.10;;;;;;;;;;6214940;28;20728;-71
2022/06/28 02:56:40;;;;;;;12.75;11.50;;;;;;;;;;6195382;28;20251;-71
2022/06/28 03:00:00;;;;;;;13.18;12.23;;;;;;;;;;6197302;28;20248;-70
2022/06/28 03:03:20;;;;;;;12.98;11.68;;;;;;;;;;6194477;28;20225;-70
2022/06/28 03:06:42;;;;;;;14.27;13.10;;;;;;;;;;6203505;28;20261;-71
2022/06/28 03:10:03;;;;;;;13.32;11.98;;;;;;;;;;6200544;28;21053;-70
2022/06/28 03:13:24;;;;;;;14.32;12.98;;;;;;;;;;6201733;28;20229;-71
2022/06/28 03:16:45;;;;;;;25.80;14.30;;;;;;;;;;6201120;28;20614;-70
2022/06/28 03:20:07;;;;;;;15.90;14.55;;;;;;;;;;6202223;28;20245;-70
2022/06/28 03:23:29;;;;;;;11.32;10.32;;;;;;;;;;6213943;28;20233;-70
2022/06/28 03:26:49;;;;;;;12.15;10.98;;;;;;;;;;6192787;28;20236;-71
2022/06/28 03:30:10;;;;;;;9.88;8.90;;;;;;;;;;6212281;28;21976;-70
2022/06/28 03:33:35;;;;;;;8.38;7.65;;;;;;;;;;6211553;28;20237;-71
2022/06/28 03:36:56;;;;;;;8.30;7.55;;;;;;;;;;6198970;28;20606;-71
2022/06/28 03:40:31;;;;;;;7.43;6.72;;;;;;;;;;6210144;28;20252;-70
2022/06/28 03:43:52;;;;;;;7.47;6.85;;;;;;;;;;6198060;28;20230;-71
2022/06/28 03:47:13;;;;;;;7.78;7.07;;;;;;;;;;6195179;28;20241;-70
2022/06/28 03:50:33;;;;;;;8.65;6.88;;;;;;;;;;6197786;28;20621;-70
2022/06/28 03:54:03;;;;;;;8.00;6.90;;;;;;;;;;6195542;28;20225;-71
2022/06/28 03:57:31;;;;;;;6.35;5.72;;;;;;;;;;6210526;28;20409;-70
2022/06/28 04:00:53;;;;;;;8.48;7.70;;;;;;;;;;6199683;28;20233;-70
2022/06/28 04:04:14;;;;;;;10.48;9.25;;;;;;;;;;6208464;28;20225;-71
2022/06/28 04:07:38;;;;;;;9.20;8.45;;;;;;;;;;6198400;28;20245;-71
2022/06/28 04:11:17;;;;;;;10.45;9.50;;;;;;;;;;6199468;28;20225;-70
2022/06/28 04:14:41;;;;;;;12.02;11.02;;;;;;;;;;6217219;28;20618;-70
2022/06/28 04:18:01;;;;;;;13.10;10.63;;;;;;;;;;6197622;28;20233;-70
2022/06/28 04:21:42;;;;;;;20.92;12.88;;;;;;;;;;6182953;28;20758;-70
2022/06/28 04:25:07;;;;;;;12.40;11.40;;;;;;;;;;6202221;28;20234;-70
2022/06/28 04:28:35;;;;;;;13.30;12.07;;;;;;;;;;6199218;28;20317;-70
2022/06/28 04:32:01;;;;;;;11.45;10.55;;;;;;;;;;6208518;28;20225;-71
2022/06/28 04:35:22;;;;;;;12.40;11.30;;;;;;;;;;6190504;28;20236;-70
2022/06/28 04:38:42;;;;;;;14.18;10.90;;;;;;;;;;6197723;28;20229;-72
2022/06/28 04:42:06;;;;;;;12.18;11.05;;;;;;;;;;6199723;28;20342;-71
2022/06/28 04:45:30;;;;;;;11.93;10.88;;;;;;;;;;6202480;28;20260;-71
2022/06/28 04:49:01;;;;;;;10.05;9.32;;;;;;;;;;6213974;28;20232;-70
2022/06/28 04:52:32;;;;;;;14.70;13.43;;;;;;;;;;6198464;28;20225;-70
2022/06/28 04:55:55;;;;;;;12.93;11.93;;;;;;;;;;6200585;28;20221;-70
2022/06/28 04:59:16;;;;;;;12.23;11.23;;;;;;;;;;6202725;28;20237;-72
2022/06/28 05:02:37;;;;;;;12.82;11.80;;;;;;;;;;6200519;28;20256;-72
2022/06/28 05:06:02;;;;;;;12.68;11.57;;;;;;;;;;6203720;28;20241;-71
2022/06/28 05:09:23;;;;;;;13.13;12.02;;;;;;;;;;6216907;28;20253;-70
2022/06/28 05:12:45;;;;;;;11.70;10.73;;;;;;;;;;6199909;28;20233;-70
2022/06/28 05:16:06;;;;;;;13.88;12.85;;;;;;;;;;6200863;28;20242;-71
2022/06/28 05:19:27;;;;;;;15.30;14.20;;;;;;;;;;6204750;28;20221;-71
2022/06/28 05:22:49;;;;;;;23.88;21.85;;;;;;;;;;6200535;28;20234;-70
2022/06/28 05:26:29;;;;;;;26.42;24.33;;;;;;;;;;6202629;28;20234;-70
2022/06/28 05:30:04;;;;;;;23.58;21.67;;;;;;;;;;6202007;28;20276;-70
2022/06/28 05:33:24;;;;;;;20.85;19.25;;;;;;;;;;6202698;28;20638;-70
2022/06/28 05:36:46;;;;;;;19.38;17.85;;;;;;;;;;6199775;28;20343;-72
2022/06/28 05:40:10;;;;;;;12.45;11.25;;;;;;;;;;6193511;28;20324;-77
2022/06/28 05:43:31;;;;;;;15.93;14.63;;;;;;;;;;6195426;28;20627;-78
2022/06/28 05:46:51;;;;;;;15.63;14.32;;;;;;;;;;6214937;28;20225;-79
2022/06/28 05:50:12;;;;;;;15.80;14.48;;;;;;;;;;6192748;28;20237;-70
2022/06/28 05:53:33;;;;;;;17.02;15.73;;;;;;;;;;6196400;28;20547;-68
2022/06/28 05:56:55;;;;;;;11.70;10.70;;;;;;;;;;6214217;28;20233;-69
2022/06/28 06:00:16;;;;;;;12.00;10.85;;;;;;;;;;6206108;28;20276;-68
2022/06/28 06:03:37;;;;;;;10.18;9.25;;;;;;;;;;6186296;28;20268;-72
2022/06/28 06:06:58;;;;;;;9.15;8.45;;;;;;;;;;6200832;28;20229;-69
2022/06/28 06:10:19;;;;;;;8.77;8.02;;;;;;;;;;6194945;28;20287;-68
2022/06/28 06:13:41;;;;;;;8.10;7.55;;;;;;;;;;6214111;28;20236;-68
2022/06/28 06:17:03;;;;;;;10.55;9.55;;;;;;;;;;6212612;28;20548;-70
2022/06/28 06:20:24;;;;;;;9.15;8.45;;;;;;;;;;6196200;28;20229;-69
2022/06/28 06:23:45;;;;;;;9.35;8.63;;;;;;;;;;6204990;28;20237;-69
2022/06/28 06:27:06;;;;;;;8.45;7.82;;;;;;;;;;6195142;28;20229;-69
2022/06/28 06:30:28;;;;;;;9.02;8.23;;;;;;;;;;6194693;28;20225;-68
2022/06/28 06:34:07;;;;;;;8.63;7.97;;;;;;;;;;6196985;28;20241;-67
2022/06/28 06:37:34;;;;;;;7.80;7.18;;;;;;;;;;6213961;28;20537;-69
2022/06/28 06:40:58;;;;;;;8.52;7.85;;;;;;;;;;6197935;28;20233;-68
2022/06/28 06:44:19;;;;;;;7.57;6.88;;;;;;;;;;6201415;28;20271;-67
2022/06/28 06:47:45;;;;;;;7.43;6.80;;;;;;;;;;6193686;28;20237;-69
2022/06/28 06:51:06;;;;;;;7.85;7.15;;;;;;;;;;6200943;28;20483;-68
2022/06/28 06:54:28;;;;;;;7.15;5.47;;;;;;;;;;6196499;28;20260;-67
2022/06/28 06:57:48;;;;;;;7.75;5.88;;;;;;;;;;6196392;28;20328;-67
2022/06/28 07:01:10;;;;;;;7.88;5.50;;;;;;;;;;6201109;28;20527;-68
2022/06/28 07:04:32;;;;;;;6.82;6.22;;;;;;;;;;6205290;28;20240;-68
2022/06/28 07:07:52;;;;;;;8.35;5.47;;;;;;;;;;6186579;28;20225;-67
2022/06/28 07:11:18;;;;;;;5.78;5.28;;;;;;;;;;6193455;28;20863;-69
2022/06/28 07:14:39;;;;;;;5.45;4.40;;;;;;;;;;6205221;28;20232;-69
2022/06/28 07:18:00;;;;;;;7.05;6.05;;;;;;;;;;6218534;28;20253;-68
2022/06/28 07:21:22;;;;;;;5.55;5.10;;;;;;;;;;6206265;28;20226;-69
2022/06/28 07:24:43;;;;;;;4.50;3.85;;;;;;;;;;6208256;28;21215;-67
2022/06/28 07:28:08;;;;;;;5.03;4.53;;;;;;;;;;6196167;28;20236;-69
2022/06/28 07:31:30;;;;;;;6.38;5.75;;;;;;;;;;6194557;28;20229;-68
2022/06/28 07:34:51;;;;;;;5.70;5.20;;;;;;;;;;6207519;28;20663;-68
2022/06/28 07:38:14;;;;;;;5.15;4.22;;;;;;;;;;6193544;28;20226;-68
2022/06/28 07:41:53;;;;;;;15.20;4.88;;;;;;;;;;6192862;28;20229;-70
2022/06/28 07:45:40;;;;;;;7.82;5.43;;;;;;;;;;6195307;28;20237;-71
2022/06/28 07:49:05;;;;;;;5.40;5.00;;;;;;;;;;6201275;28;20233;-69
2022/06/28 07:52:37;;;;;;;6.10;5.60;;;;;;;;;;6198662;28;20756;-69
2022/06/28 07:56:03;;;;;;;5.47;5.05;;;;;;;;;;6198420;28;20233;-69
2022/06/28 07:59:26;;;;;;;5.55;4.35;;;;;;;;;;6201510;28;20225;-68
2022/06/28 08:02:47;;;;;;;7.03;4.60;;;;;;;;;;6197829;28;20265;-67
2022/06/28 08:06:08;;;;;;;6.60;3.70;;;;;;;;;;6200208;28;20244;-68
2022/06/28 08:09:38;;;;;;;3.17;2.50;;;;;;;;;;6204488;28;20699;-68
2022/06/28 08:13:00;;;;;;;2.88;2.50;;;;;;;;;;6205508;28;20619;-67
2022/06/28 08:16:21;;;;;;;2.65;2.10;;;;;;;;;;6197825;28;20228;-68
2022/06/28 08:19:42;;;;;;;3.20;2.80;;;;;;;;;;6197561;28;20328;-69
2022/06/28 08:23:03;;;;;;;4.65;2.72;;;;;;;;;;6192175;28;20233;-69
2022/06/28 08:26:23;;;;;;;3.40;2.42;;;;;;;;;;6214822;28;20234;-69
2022/06/28 08:29:47;;;;;;;5.40;3.22;;;;;;;;;;6206587;28;20224;-70
2022/06/28 08:33:08;;;;;;;3.03;2.30;;;;;;;;;;6220153;28;20241;-72
2022/06/28 08:36:29;;;;;;;2.83;2.03;;;;;;;;;;6206534;28;20328;-71
2022/06/28 08:39:49;;;;;;;2.97;1.70;;;;;;;;;;6211053;28;20236;-72
2022/06/28 08:43:09;;;;;;;2.72;1.50;;;;;;;;;;6211104;28;20233;-70
2022/06/28 08:46:32;;;;;;;1.92;1.55;;;;;;;;;;6212702;28;20240;-68
2022/06/28 08:49:55;;;;;;;3.88;1.80;;;;;;;;;;6210604;28;20228;-69
2022/06/28 08:53:16;;;;;;;3.63;1.50;;;;;;;;;;6191236;28;20237;-69
2022/06/28 08:56:38;;;;;;;2.28;1.60;;;;;;;;;;6199628;28;20328;-72
2022/06/28 08:59:59;;;;;;;3.42;1.75;;;;;;;;;;6199859;28;20229;-71
2022/06/28 09:03:21;;;;;;;3.03;1.58;;;;;;;;;;6197314;28;20237;-71
2022/06/28 09:06:41;;;;;;;1.80;1.00;;;;;;;;;;6197993;28;20490;-72
2022/06/28 09:10:05;;;;;;;4.03;1.50;;;;;;;;;;6199361;28;20233;-70
2022/06/28 09:13:25;;;;;;;2.85;1.27;;;;;;;;;;6204167;28;20260;-69
2022/06/28 09:16:46;;;;;;;1.63;1.35;;;;;;;;;;6189714;28;20241;-68
2022/06/28 09:20:09;;;;;;;4.40;2.08;;;;;;;;;;6200468;28;20225;-69
2022/06/28 09:23:30;;;;;;;9.18;2.55;;;;;;;;;;6201909;28;20323;-70
2022/06/28 09:26:52;;;;;;;2.97;1.60;;;;;;;;;;6196545;28;20233;-70
2022/06/28 09:30:14;;;;;;;1.92;1.38;;;;;;;;;;6208658;28;20241;-69
2022/06/28 09:33:34;;;;;;;2.28;2.05;;;;;;;;;;6206304;28;20253;-69
2022/06/28 09:36:57;;;;;;;1.98;1.67;;;;;;;;;;6209496;28;20236;-70
2022/06/28 09:40:18;;;;;;;3.65;2.10;;;;;;;;;;6205370;28;20237;-70
2022/06/28 09:43:39;;;;;;;2.05;1.67;;;;;;;;;;6204712;28;20229;-71
2022/06/28 09:47:00;;;;;;;3.35;1.58;;;;;;;;;;6209600;28;20228;-71
2022/06/28 09:50:23;;;;;;;3.50;1.98;;;;;;;;;;6205642;28;20611;-71
2022/06/28 09:53:45;;;;;;;3.03;0.98;;;;;;;;;;6200787;28;20225;-72
2022/06/28 09:57:06;;;;;;;1.52;0.90;;;;;;;;;;6200729;28;20233;-68
2022/06/28 10:00:27;;;;;;;2.47;1.10;;;;;;;;;;6203689;28;20288;-68
2022/06/28 10:03:49;;;;;;;1.23;1.10;;;;;;;;;;6206240;28;21021;-68
2022/06/28 10:07:10;;;;;;;1.90;0.80;;;;;;;;;;6200235;28;20241;-68
2022/06/28 10:10:33;;;;;;;3.88;1.58;;;;;;;;;;6195830;28;21526;-68
2022/06/28 10:17:41;;;;;;;6.50;3.60;;;;;;;;;;6202029;28;20232;-71
2022/06/28 10:21:02;;;;;;;1.60;1.25;;;;;;;;;;6191203;28;20610;-70
2022/06/28 10:24:22;;;;;;;3.03;1.23;;;;;;;;;;6203856;28;20225;-71
2022/06/28 10:27:46;;;;;;;1.08;0.90;;;;;;;;;;6200469;28;20233;-69
2022/06/28 10:31:25;;;;;;;2.92;1.40;;;;;;;;;;6201666;28;20570;-69
2022/06/28 10:34:52;;;;;;;3.33;2.28;;;;;;;;;;6203180;28;20233;-68
2022/06/28 10:38:16;;;;;;;4.32;1.10;;;;;;;;;;6197370;28;20233;-69
2022/06/28 10:41:36;;;;;;;1.35;1.20;;;;;;;;;;6206183;28;20228;-70
2022/06/28 10:44:59;;;;;;;2.83;1.15;;;;;;;;;;6203964;28;20241;-70
2022/06/28 10:48:19;;;;;;;1.77;1.08;;;;;;;;;;6205322;28;20615;-69
2022/06/28 10:51:58;;;;;;;1.83;1.15;;;;;;;;;;6207688;28;20613;-69
2022/06/28 10:55:20;;;;;;;4.95;2.00;;;;;;;;;;6211059;28;20229;-69
2022/06/28 10:58:53;;;;;;;1.65;0.95;;;;;;;;;;6206912;28;20225;-70
2022/06/28 11:02:15;;;;;;;2.97;1.17;;;;;;;;;;6201745;28;20548;-68
2022/06/28 11:05:46;;;;;;;1.73;1.30;;;;;;;;;;6206434;28;20225;-70
2022/06/28 11:09:09;;;;;;;2.22;1.02;;;;;;;;;;6207456;28;20986;-69
2022/06/28 11:12:37;;;;;;;2.15;0.95;;;;;;;;;;6197718;28;20237;-69
2022/06/28 11:15:58;;;;;;;2.55;1.05;;;;;;;;;;6193048;28;20320;-69
2022/06/28 11:19:20;;;;;;;5.32;2.15;;;;;;;;;;6201079;28;20611;-68
2022/06/28 11:22:41;;;;;;;1.58;0.88;;;;;;;;;;6200614;28;20244;-69
2022/06/28 11:29:56;;;;;;;3.42;2.00;;;;;;;;;;6186694;28;20634;-68
2022/06/28 11:33:16;;;;;;;2.03;1.20;;;;;;;;;;6205603;28;20729;-70
2022/06/28 11:36:38;;;;;;;2.45;0.93;;;;;;;;;;6200303;28;20225;-70
2022/06/28 11:39:59;;;;;;;2.97;1.40;;;;;;;;;;6200570;28;20319;-68
2022/06/28 11:43:25;;;;;;;2.45;1.30;;;;;;;;;;6203914;28;20233;-72
2022/06/28 11:46:46;;;;;;;1.48;1.35;;;;;;;;;;6203305;28;20233;-69
2022/06/28 11:50:10;;;;;;;4.32;1.13;;;;;;;;;;6206599;28;20240;-71
2022/06/28 11:53:43;;;;;;;4.10;1.30;;;;;;;;;;6200660;28;20618;-68
2022/06/28 11:57:12;;;;;;;2.40;1.05;;;;;;;;;;6195646;28;21110;-67
2022/06/28 12:00:33;;;;;;;1.90;0.98;;;;;;;;;;6198776;28;20640;-69
2022/06/28 12:03:58;;;;;;;2.95;1.45;;;;;;;;;;6200704;28;20236;-69
2022/06/28 12:07:32;;;;;;;2.78;1.40;;;;;;;;;;6203398;28;20321;-69
2022/06/28 12:10:55;;;;;;;4.80;1.83;;;;;;;;;;6203775;28;20229;-70
2022/06/28 12:14:17;;;;;;;2.40;1.38;;;;;;;;;;6202125;28;20312;-69
2022/06/28 12:17:45;;;;;;;2.35;1.67;;;;;;;;;;6196873;28;20233;-69
2022/06/28 12:21:13;;;;;;;1.58;1.05;;;;;;;;;;6204816;28;20236;-69
2022/06/28 12:24:44;;;;;;;2.55;1.38;;;;;;;;;;6204523;28;21119;-71
2022/06/28 12:28:06;;;;;;;3.55;1.02;;;;;;;;;;6199156;28;20228;-69
2022/06/28 12:31:27;;;;;;;4.45;1.40;;;;;;;;;;6198316;28;20233;-68
2022/06/28 12:34:48;;;;;;;4.00;1.50;;;;;;;;;;6182610;28;20241;-68
2022/06/28 12:38:08;;;;;;;2.67;1.40;;;;;;;;;;6203953;28;21160;-68
2022/06/28 12:41:29;;;;;;;1.25;1.00;;;;;;;;;;6202671;28;20247;-68
2022/06/28 12:44:51;;;;;;;0.85;0.80;;;;;;;;;;6203905;28;20237;-68
2022/06/28 12:48:12;;;;;;;1.23;0.95;;;;;;;;;;6201335;28;20238;-69
2022/06/28 12:51:32;;;;;;;4.15;1.27;;;;;;;;;;6207008;28;20232;-68
2022/06/28 12:54:53;;;;;;;2.38;1.85;;;;;;;;;;6199949;28;20237;-68
2022/06/28 12:58:13;;;;;;;1.95;1.85;;;;;;;;;;6199346;28;20245;-70
2022/06/28 13:01:35;;;;;;;2.95;1.30;;;;;;;;;;6196772;28;20233;-69
2022/06/28 13:04:56;;;;;;;3.03;1.40;;;;;;;;;;6193240;28;20229;-69
2022/06/28 13:08:17;;;;;;;2.85;1.80;;;;;;;;;;6198783;28;20240;-69
2022/06/28 13:11:37;;;;;;;2.20;1.45;;;;;;;;;;6200565;28;20257;-71
2022/06/28 13:14:58;;;;;;;4.72;1.80;;;;;;;;;;6207158;28;20233;-70
2022/06/28 13:18:20;;;;;;;5.43;1.83;;;;;;;;;;6199131;28;20237;-68
2022/06/28 13:21:40;;;;;;;2.13;1.25;;;;;;;;;;6205309;28;20355;-68
2022/06/28 13:25:01;;;;;;;1.67;1.33;;;;;;;;;;6202992;28;20225;-69
2022/06/28 13:28:21;;;;;;;2.42;1.38;;;;;;;;;;6207719;28;20233;-70
2022/06/28 13:31:41;;;;;;;2.70;1.45;;;;;;;;;;6207816;28;20260;-69
2022/06/28 13:35:04;;;;;;;1.90;1.52;;;;;;;;;;6207466;28;20233;-69
2022/06/28 13:38:25;;;;;;;2.88;1.38;;;;;;;;;;6203992;28;20233;-69
2022/06/28 13:41:45;;;;;;;2.55;2.03;;;;;;;;;;6205845;28;20254;-68
2022/06/28 13:45:09;;;;;;;3.10;2.13;;;;;;;;;;6208499;28;20229;-69
2022/06/28 13:48:30;;;;;;;2.13;1.60;;;;;;;;;;6196155;28;20265;-69
2022/06/28 13:51:52;;;;;;;2.85;1.65;;;;;;;;;;6209223;28;20428;-69
2022/06/28 13:55:14;;;;;;;4.85;1.67;;;;;;;;;;6210499;28;20332;-69
2022/06/28 13:58:34;;;;;;;1.45;1.33;;;;;;;;;;6208006;28;20252;-69
2022/06/28 14:01:55;;;;;;;3.33;1.73;;;;;;;;;;6198097;28;20805;-68
2022/06/28 14:05:15;;;;;;;3.10;1.80;;;;;;;;;;6197391;28;20622;-74
2022/06/28 14:08:37;;;;;;;2.30;1.42;;;;;;;;;;6207921;28;20252;-74
2022/06/28 14:11:59;;;;;;;2.92;1.55;;;;;;;;;;6191519;28;20587;-75
2022/06/28 14:15:20;;;;;;;0.90;0.80;;;;;;;;;;6198752;28;20237;-75
2022/06/28 14:18:40;;;;;;;2.15;1.55;;;;;;;;;;6196736;28;21830;-75
2022/06/28 14:22:02;;;;;;;3.63;1.45;;;;;;;;;;6202464;28;20237;-75
2022/06/28 14:25:24;;;;;;;2.70;2.10;;;;;;;;;;6204527;28;20225;-75
2022/06/28 14:28:44;;;;;;;3.13;2.85;;;;;;;;;;6206649;28;20225;-73
2022/06/28 14:32:06;;;;;;;1.88;1.50;;;;;;;;;;6206132;28;20245;-72
2022/06/28 14:35:27;;;;;;;2.10;1.80;;;;;;;;;;6190460;28;20233;-75
2022/06/28 14:38:47;;;;;;;2.55;1.73;;;;;;;;;;6207523;28;20228;-74
2022/06/28 14:42:09;;;;;;;4.22;1.60;;;;;;;;;;6200215;28;20264;-73
2022/06/28 14:45:30;;;;;;;3.50;1.63;;;;;;;;;;6198006;28;20233;-73
2022/06/28 14:48:51;;;;;;;2.67;1.70;;;;;;;;;;6193325;28;20233;-72
2022/06/28 14:52:11;;;;;;;2.97;1.52;;;;;;;;;;6196620;28;20541;-74
2022/06/28 14:55:32;;;;;;;2.17;1.98;;;;;;;;;;6191235;28;20751;-72
2022/06/28 14:58:54;;;;;;;2.53;2.33;;;;;;;;;;6185901;28;20233;-73
2022/06/28 15:02:16;;;;;;;4.65;2.63;;;;;;;;;;6186274;28;20233;-73
2022/06/28 15:05:36;;;;;;;3.05;1.85;;;;;;;;;;6189350;28;20229;-73
2022/06/28 15:08:57;;;;;;;3.65;1.58;;;;;;;;;;6190054;28;20634;-73
2022/06/28 15:12:17;;;;;;;2.55;1.80;;;;;;;;;;6203675;28;20248;-72
2022/06/28 15:15:39;;;;;;;2.53;1.65;;;;;;;;;;6206617;28;20236;-72
2022/06/28 15:19:00;;;;;;;2.90;1.75;;;;;;;;;;6203998;28;20229;-73
2022/06/28 15:33:16;;;;;;;4.88;4.38;;;;;;;;;;6196814;28;20241;-71
2022/06/28 15:36:37;;;;;;;4.00;2.40;;;;;;;;;;6201151;28;20225;-71
2022/06/28 15:39:57;;;;;;;4.78;3.92;;;;;;;;;;6195127;28;20217;-72
2022/06/28 15:43:18;;;;;;;2.90;1.90;;;;;;;;;;6192223;28;20622;-72
2022/06/28 15:46:39;;;;;;;3.45;2.25;;;;;;;;;;6207973;28;20325;-73
2022/06/28 15:50:00;;;;;;;3.55;1.45;;;;;;;;;;6188553;28;20238;-74
2022/06/28 15:53:21;;;;;;;6.88;4.80;;;;;;;;;;6190232;28;20245;-73
2022/06/28 15:56:42;;;;;;;3.45;2.95;;;;;;;;;;6197949;28;20245;-72
2022/06/28 16:00:05;;;;;;;5.72;2.40;;;;;;;;;;6199677;28;20316;-72
2022/06/28 16:03:32;;;;;;;3.47;2.95;;;;;;;;;;6192753;28;20240;-72
2022/06/28 16:06:54;;;;;;;7.95;7.15;;;;;;;;;;6189145;28;20259;-72
2022/06/28 16:10:15;;;;;;;14.27;12.95;;;;;;;;;;6192807;28;21176;-72
2022/06/28 16:13:36;;;;;;;10.90;9.88;;;;;;;;;;6191171;28;20228;-73
2022/06/28 16:16:57;;;;;;;3.25;1.90;;;;;;;;;;6185106;28;20221;-70
2022/06/28 16:20:18;;;;;;;2.03;1.30;;;;;;;;;;6197287;28;20758;-70
2022/06/28 16:23:40;;;;;;;3.95;3.55;;;;;;;;;;6204369;28;20256;-70
2022/06/28 16:27:00;;;;;;;5.10;2.30;;;;;;;;;;6200283;28;20225;-70
2022/06/28 16:30:21;;;;;;;5.13;2.60;;;;;;;;;;6202462;28;20229;-71
2022/06/28 16:33:42;;;;;;;4.20;2.80;;;;;;;;;;6198904;28;20244;-70
2022/06/28 16:37:03;;;;;;;3.05;1.88;;;;;;;;;;6202621;28;20591;-70
2022/06/28 16:40:25;;;;;;;2.00;1.85;;;;;;;;;;6199194;28;20490;-71
2022/06/28 16:43:46;;;;;;;3.33;1.58;;;;;;;;;;6202132;28;20237;-71
2022/06/28 16:47:06;;;;;;;2.72;1.50;;;;;;;;;;6203470;28;20236;-71
2022/06/28 16:50:27;;;;;;;33.38;30.20;;;;;;;;;;6201815;28;20498;-70
2022/06/28 16:53:48;;;;;;;18.45;16.60;;;;;;;;;;6205853;28;20233;-71
2022/06/28 16:57:10;;;;;;;2.67;1.55;;;;;;;;;;6200408;28;20233;-71
2022/06/28 17:00:30;;;;;;;9.43;6.97;;;;;;;;;;6203513;28;20229;-71
2022/06/28 17:03:50;;;;;;;5.75;5.15;;;;;;;;;;6206561;28;20233;-71
2022/06/28 17:07:27;;;;;;;3.60;3.30;;;;;;;;;;6201266;28;20252;-72
2022/06/28 17:10:47;;;;;;;7.50;6.80;;;;;;;;;;6201611;28;20240;-70
2022/06/28 17:14:09;;;;;;;4.05;3.28;;;;;;;;;;6204151;28;20248;-70
2022/06/28 17:17:30;;;;;;;6.05;2.28;;;;;;;;;;6204607;28;20253;-69
2022/06/28 17:20:50;;;;;;;3.05;2.75;;;;;;;;;;6206893;28;20229;-70
2022/06/28 17:24:12;;;;;;;3.50;1.77;;;;;;;;;;6196759;28;20229;-70
2022/06/28 17:27:32;;;;;;;3.65;2.10;;;;;;;;;;6200068;28;20522;-71
2022/06/28 17:30:55;;;;;;;2.03;1.92;;;;;;;;;;6200985;28;20615;-70
2022/06/28 17:34:16;;;;;;;2.05;1.30;;;;;;;;;;6201525;28;20325;-72
2022/06/28 17:37:36;;;;;;;1.45;1.35;;;;;;;;;;6201643;28;20228;-68
2022/06/28 17:40:57;;;;;;;2.67;1.30;;;;;;;;;;6202662;28;20229;-69
2022/06/28 17:44:18;;;;;;;2.47;1.80;;;;;;;;;;6206580;28;20237;-70
2022/06/28 17:47:40;;;;;;;1.70;1.60;;;;;;;;;;6206141;28;20233;-68
2022/06/28 17:51:01;;;;;;;1.73;1.63;;;;;;;;;;6212069;28;20229;-70
2022/06/28 17:54:21;;;;;;;1.35;1.25;;;;;;;;;;6200341;28;20356;-70
2022/06/28 17:57:42;;;;;;;1.60;1.50;;;;;;;;;;6194097;28;20245;-73
2022/06/28 18:01:02;;;;;;;1.70;1.60;;;;;;;;;;6192372;28;20233;-70
2022/06/28 18:04:25;;;;;;;3.00;1.40;;;;;;;;;;6186335;28;20271;-70
2022/06/28 18:07:46;;;;;;;17.80;16.10;;;;;;;;;;6174140;28;20241;-70
2022/06/28 18:11:06;;;;;;;11.23;10.00;;;;;;;;;;6189703;28;20229;-71
2022/06/28 18:14:27;;;;;;;14.20;12.80;;;;;;;;;;6190267;28;20312;-73
2022/06/28 18:17:47;;;;;;;3.30;2.58;;;;;;;;;;6188415;28;20348;-70
2022/06/28 18:21:09;;;;;;;12.57;11.35;;;;;;;;;;6189659;28;20316;-71
2022/06/28 18:24:30;;;;;;;16.98;15.43;;;;;;;;;;6198075;28;20234;-71
2022/06/28 18:27:50;;;;;;;19.95;18.15;;;;;;;;;;6201531;28;20233;-71
2022/06/28 18:31:11;;;;;;;6.95;6.35;;;;;;;;;;6196879;28;20225;-71
2022/06/28 18:34:32;;;;;;;8.48;7.57;;;;;;;;;;6201785;28;20229;-70
2022/06/28 18:37:54;;;;;;;6.00;5.43;;;;;;;;;;6205549;28;20301;-71
2022/06/28 18:41:15;;;;;;;4.63;3.00;;;;;;;;;;6198094;28;20233;-70
2022/06/28 18:44:35;;;;;;;3.05;2.75;;;;;;;;;;6205221;28;20260;-72
2022/06/28 18:47:56;;;;;;;3.75;3.00;;;;;;;;;;6199773;28;20355;-71
2022/06/28 18:51:17;;;;;;;4.95;4.53;;;;;;;;;;6200850;28;20225;-71
2022/06/28 18:54:39;;;;;;;2.35;2.03;;;;;;;;;;6203338;28;20233;-70
2022/06/28 18:58:00;;;;;;;19.63;17.77;;;;;;;;;;6199484;28;20236;-70
2022/06/28 19:01:21;;;;;;;44.65;40.08;;;;;;;;;;6204396;28;20511;-71
2022/06/28 19:04:42;;;;;;;29.17;26.15;;;;;;;;;;6201612;28;20229;-71
2022/06/28 19:08:02;;;;;;;12.05;10.82;;;;;;;;;;6200123;28;20681;-70
2022/06/28 19:11:26;;;;;;;26.63;23.75;;;;;;;;;;6203972;28;20531;-70
2022/06/28 19:14:46;;;;;;;10.48;9.48;;;;;;;;;;6203506;28;20244;-72
2022/06/28 19:18:07;;;;;;;8.10;6.90;;;;;;;;;;6201061;28;20225;-71
2022/06/28 19:21:27;;;;;;;5.32;4.60;;;;;;;;;;6198412;28;20233;-71
2022/06/28 19:24:48;;;;;;;7.45;6.43;;;;;;;;;;6187282;28;20237;-70
2022/06/28 19:28:10;;;;;;;12.35;11.20;;;;;;;;;;6195362;28;20236;-72
2022/06/28 19:31:32;;;;;;;8.93;8.07;;;;;;;;;;6202041;28;20237;-71
2022/06/28 19:34:52;;;;;;;4.75;3.67;;;;;;;;;;6201910;28;20229;-72
2022/06/28 19:38:12;;;;;;;2.92;2.72;;;;;;;;;;6200716;28;20229;-72
2022/06/28 19:41:33;;;;;;;4.78;2.78;;;;;;;;;;6199143;28;20308;-69
2022/06/28 19:44:55;;;;;;;17.02;15.52;;;;;;;;;;6202438;28;20245;-71
2022/06/28 19:48:15;;;;;;;13.88;12.60;;;;;;;;;;6201975;28;20241;-72
2022/06/28 19:51:36;;;;;;;6.13;5.50;;;;;;;;;;6203871;28;20626;-72
2022/06/28 19:54:57;;;;;;;7.38;6.68;;;;;;;;;;6195942;28;20229;-72
2022/06/28 19:58:18;;;;;;;9.07;7.15;;;;;;;;;;6197650;28;20233;-72
2022/06/28 20:01:40;;;;;;;9.95;8.75;;;;;;;;;;6192942;28;20233;-71
2022/06/28 20:05:00;;;;;;;5.43;4.97;;;;;;;;;;6203974;28;20237;-71
2022/06/28 20:08:21;;;;;;;7.57;4.63;;;;;;;;;;6205800;28;20236;-71
2022/06/28 20:11:41;;;;;;;5.03;4.45;;;;;;;;;;6206958;28;20240;-71
2022/06/28 20:15:02;;;;;;;3.92;3.35;;;;;;;;;;6210296;28;20586;-74
2022/06/28 20:18:24;;;;;;;3.03;2.83;;;;;;;;;;6204036;28;20225;-72
2022/06/28 20:21:45;;;;;;;3.38;3.08;;;;;;;;;;6207636;28;20265;-73
2022/06/28 20:25:06;;;;;;;4.18;3.88;;;;;;;;;;6207724;28;20221;-73
2022/06/28 20:28:27;;;;;;;3.28;3.03;;;;;;;;;;6211646;28;20261;-72
2022/06/28 20:31:48;;;;;;;4.63;2.65;;;;;;;;;;6206655;28;20355;-71